createdAt,value
2018-09-29T00:00:53.332Z,102525.13
2018-09-29T00:05:47.878Z,102533.14
2018-09-29T00:10:42.524Z,102529.22
2018-09-29T00:15:37.022Z,102526.65
2018-09-29T00:20:31.574Z,102519.72
2018-09-29T00:25:26.194Z,102523.73
2018-09-29T00:30:20.930Z,102512.41
2018-09-29T00:35:15.425Z,102509.84
2018-09-29T00:40:10.652Z,102499.83
2018-09-29T00:45:05.581Z,102500.77
2018-09-29T00:50:00.572Z,102505.17
2018-09-29T00:54:55.670Z,102506.54
2018-09-29T00:59:50.362Z,102510.52
2018-09-29T01:04:45.000Z,102507.93
2018-09-29T01:09:39.848Z,102509.70
2018-09-29T01:14:34.343Z,102507.54
2018-09-29T01:19:29.140Z,102514.16
2018-09-29T01:24:23.655Z,102514.66
2018-09-29T01:29:18.277Z,102511.20
2018-09-29T01:34:12.800Z,102506.41
2018-09-29T01:39:09.571Z,102499.86
2018-09-29T01:44:04.076Z,102505.17
2018-09-29T01:48:58.600Z,102496.86
2018-09-29T01:53:53.102Z,102494.73
2018-09-29T01:58:48.361Z,102494.77
2018-09-29T02:03:42.808Z,102486.92
2018-09-29T02:08:37.376Z,102488.76
2018-09-29T02:13:38.471Z,102490.98
2018-09-29T02:18:33.030Z,102483.58
2018-09-29T02:23:27.760Z,102488.48
2018-09-29T02:28:22.216Z,102497.74
2018-09-29T02:33:16.781Z,102492.98
2018-09-29T02:38:11.257Z,102495.18
2018-09-29T02:43:06.166Z,102498.72
2018-09-29T02:48:00.634Z,102503.58
2018-09-29T02:52:55.102Z,102503.61
2018-09-29T02:57:49.696Z,102506.23
2018-09-29T03:02:44.380Z,102504.09
2018-09-29T03:07:38.818Z,102507.59
2018-09-29T03:12:33.293Z,102504.14
2018-09-29T03:17:27.751Z,102502.86
2018-09-29T03:22:22.216Z,102504.16
2018-09-29T03:27:16.709Z,102500.70
2018-09-29T03:32:11.207Z,102505.95
2018-09-29T03:37:05.798Z,102505.11
2018-09-29T03:42:00.246Z,102502.92
2018-09-29T03:46:54.990Z,102497.28
2018-09-29T03:51:49.690Z,102495.54
2018-09-29T03:56:44.145Z,102495.53
2018-09-29T04:01:39.073Z,102488.56
2018-09-29T04:06:33.526Z,102491.63
2018-09-29T04:11:28.002Z,102482.46
2018-09-29T04:16:22.488Z,102496.91
2018-09-29T04:21:16.955Z,102497.80
2018-09-29T04:26:11.656Z,102494.73
2018-09-29T04:31:06.299Z,102500.87
2018-09-29T04:36:00.773Z,102495.65
2018-09-29T04:40:55.230Z,102506.59
2018-09-29T04:45:49.837Z,102499.20
2018-09-29T04:50:44.335Z,102503.14
2018-09-29T04:55:38.922Z,102508.83
2018-09-29T05:00:33.390Z,102514.52
2018-09-29T05:05:27.898Z,102512.78
2018-09-29T05:10:22.402Z,102505.77
2018-09-29T05:15:16.889Z,102513.20
2018-09-29T05:20:11.693Z,102518.02
2018-09-29T05:25:07.430Z,102519.75
2018-09-29T05:30:02.130Z,102515.41
2018-09-29T05:34:56.924Z,102517.56
2018-09-29T05:39:51.379Z,102538.13
2018-09-29T05:44:46.409Z,102530.66
2018-09-29T05:49:40.885Z,102531.95
2018-09-29T05:54:37.749Z,102541.52
2018-09-29T05:59:32.583Z,102542.77
2018-09-29T06:04:30.006Z,102542.72
2018-09-29T06:09:24.626Z,102547.86
2018-09-29T06:14:19.357Z,102556.91
2018-09-29T06:19:14.400Z,102551.06
2018-09-29T06:24:09.142Z,102553.42
2018-09-29T06:29:03.669Z,102556.20
2018-09-29T06:33:58.312Z,102559.38
2018-09-29T06:38:52.924Z,102551.52
2018-09-29T06:43:47.516Z,102543.06
2018-09-29T06:48:42.004Z,102540.59
2018-09-29T06:53:36.628Z,102542.24
2018-09-29T06:58:31.074Z,102539.36
2018-09-29T07:03:25.622Z,102544.92
2018-09-29T07:08:20.119Z,102535.09
2018-09-29T07:13:14.772Z,102523.80
2018-09-29T07:18:09.289Z,102531.64
2018-09-29T07:23:03.806Z,102531.56
2018-09-29T07:27:58.271Z,102532.25
2018-09-29T07:32:52.778Z,102536.11
2018-09-29T07:37:47.256Z,102534.73
2018-09-29T07:42:41.755Z,102532.79
2018-09-29T07:47:36.309Z,102520.36
2018-09-29T07:52:30.962Z,102525.75
2018-09-29T07:57:25.685Z,102526.78
2018-09-29T08:02:20.850Z,102523.45
2018-09-29T08:07:15.651Z,102523.46
2018-09-29T08:12:10.456Z,102516.39
2018-09-29T08:17:05.312Z,102518.97
2018-09-29T08:22:00.364Z,102503.33
2018-09-29T08:26:55.166Z,102501.60
2018-09-29T08:31:49.924Z,102497.98
2018-09-29T08:36:44.773Z,102494.62
2018-09-29T08:41:39.718Z,102484.02
2018-09-29T08:46:34.659Z,102484.02
2018-09-29T08:51:29.583Z,102489.38
2018-09-29T08:56:25.045Z,102488.66
2018-09-29T09:01:19.863Z,102481.97
2018-09-29T09:06:14.942Z,102483.42
2018-09-29T09:11:09.703Z,102474.88
2018-09-29T09:16:04.608Z,102473.91
2018-09-29T09:20:59.418Z,102478.04
2018-09-29T09:25:54.478Z,102477.72
2018-09-29T09:30:50.715Z,102471.85
2018-09-29T09:35:45.724Z,102461.86
2018-09-29T09:40:40.418Z,102454.14
2018-09-29T09:45:35.142Z,102451.46
2018-09-29T09:50:29.840Z,102449.09
2018-09-29T09:55:24.339Z,102447.40
2018-09-29T10:00:18.812Z,102437.25
2018-09-29T10:05:13.271Z,102427.98
2018-09-29T10:10:07.793Z,102422.77
2018-09-29T10:15:02.236Z,102417.52
2018-09-29T10:19:56.703Z,102405.97
2018-09-29T10:24:51.171Z,102397.13
2018-09-29T10:29:45.742Z,102394.38
2018-09-29T10:34:40.418Z,102384.93
2018-09-29T10:39:34.996Z,102382.23
2018-09-29T10:44:29.443Z,102374.11
2018-09-29T10:49:24.039Z,102360.17
2018-09-29T10:54:18.493Z,102346.61
2018-09-29T10:59:13.084Z,102354.50
2018-09-29T11:04:07.825Z,102335.63
2018-09-29T11:09:02.348Z,102333.92
2018-09-29T11:13:57.031Z,102333.48
2018-09-29T11:18:51.513Z,102327.36
2018-09-29T11:23:45.954Z,102318.11
2018-09-29T11:28:40.444Z,102306.75
2018-09-29T11:33:34.932Z,102300.09
2018-09-29T11:38:29.456Z,102297.80
2018-09-29T11:43:24.328Z,102288.86
2018-09-29T11:48:18.973Z,102274.05
2018-09-29T11:53:13.478Z,102266.61
2018-09-29T11:58:08.130Z,102260.80
2018-09-29T12:03:02.985Z,102257.89
2018-09-29T12:07:57.645Z,102243.63
2018-09-29T12:12:53.266Z,102237.34
2018-09-29T12:17:47.821Z,102225.00
2018-09-29T12:22:42.285Z,102217.88
2018-09-29T12:27:36.912Z,102214.25
2018-09-29T12:32:31.507Z,102199.11
2018-09-29T12:37:26.204Z,102199.93
2018-09-29T12:42:21.034Z,102194.17
2018-09-29T12:47:16.729Z,102177.89
2018-09-29T12:52:11.286Z,102173.00
2018-09-29T12:57:05.978Z,102164.27
2018-09-29T13:02:00.566Z,102163.56
2018-09-29T13:06:55.116Z,102146.05
2018-09-29T13:11:49.907Z,102139.15
2018-09-29T13:16:44.437Z,102127.17
2018-09-29T13:21:39.342Z,102121.50
2018-09-29T13:26:34.145Z,102106.53
2018-09-29T13:31:28.952Z,102108.14
2018-09-29T13:36:23.516Z,102101.52
2018-09-29T13:41:19.141Z,102089.91
2018-09-29T13:46:13.673Z,102083.28
2018-09-29T13:51:08.299Z,102078.41
2018-09-29T13:56:03.652Z,102076.17
2018-09-29T14:00:58.326Z,102069.97
2018-09-29T14:05:53.115Z,102057.56
2018-09-29T14:10:47.571Z,102056.42
2018-09-29T14:15:42.568Z,102041.88
2018-09-29T14:20:37.376Z,102031.50
2018-09-29T14:25:33.035Z,102027.61
2018-09-29T14:30:27.729Z,102019.51
2018-09-29T14:35:22.393Z,102004.41
2018-09-29T14:40:17.037Z,102006.80
2018-09-29T14:45:11.626Z,101997.27
2018-09-29T14:50:07.001Z,101998.66
2018-09-29T14:55:01.699Z,101985.49
2018-09-29T14:59:56.651Z,101979.94
2018-09-29T15:04:51.202Z,101967.23
2018-09-29T15:09:45.642Z,101966.48
2018-09-29T15:14:40.652Z,101954.25
2018-09-29T15:19:35.645Z,101950.62
2018-09-29T15:24:30.812Z,101947.64
2018-09-29T15:29:25.659Z,101938.48
2018-09-29T15:34:20.563Z,101933.30
2018-09-29T15:39:15.072Z,101923.27
2018-09-29T15:44:10.346Z,101929.16
2018-09-29T15:49:05.152Z,101921.84
2018-09-29T15:53:59.851Z,101924.30
2018-09-29T15:58:54.492Z,101915.35
2018-09-29T16:03:48.961Z,101916.67
2018-09-29T16:08:43.678Z,101903.17
2018-09-29T16:13:38.353Z,101903.10
2018-09-29T16:18:32.953Z,101900.35
2018-09-29T16:23:27.639Z,101887.66
2018-09-29T16:28:22.117Z,101881.39
2018-09-29T16:33:17.120Z,101882.20
2018-09-29T16:38:11.584Z,101880.89
2018-09-29T16:43:06.264Z,101882.59
2018-09-29T16:48:00.731Z,101882.99
2018-09-29T16:52:55.242Z,101872.45
2018-09-29T16:57:49.792Z,101865.39
2018-09-29T17:02:44.269Z,101860.72
2018-09-29T17:07:38.918Z,101866.66
2018-09-29T17:12:33.602Z,101861.84
2018-09-29T17:17:28.120Z,101858.34
2018-09-29T17:22:22.604Z,101853.58
2018-09-29T17:27:17.039Z,101854.14
2018-09-29T17:32:11.823Z,101852.94
2018-09-29T17:37:06.523Z,101847.53
2018-09-29T17:42:01.136Z,101852.33
2018-09-29T17:46:55.622Z,101854.40
2018-09-29T17:51:50.077Z,101852.80
2018-09-29T17:56:44.523Z,101844.64
2018-09-29T18:01:39.001Z,101847.90
2018-09-29T18:06:34.503Z,101848.99
2018-09-29T18:11:29.014Z,101857.05
2018-09-29T18:16:25.375Z,101858.06
2018-09-29T18:21:19.957Z,101858.48
2018-09-29T18:26:15.023Z,101858.90
2018-09-29T18:31:09.680Z,101859.77
2018-09-29T18:36:04.274Z,101848.78
2018-09-29T18:40:59.509Z,101848.74
2018-09-29T18:45:54.036Z,101849.88
2018-09-29T18:50:49.340Z,101854.23
2018-09-29T18:55:43.983Z,101848.41
2018-09-29T19:00:40.307Z,101845.18
2018-09-29T19:05:35.550Z,101848.10
2018-09-29T19:10:30.450Z,101846.18
2018-09-29T19:15:25.379Z,101834.63
2018-09-29T19:20:19.956Z,101837.98
2018-09-29T19:25:15.673Z,101832.63
2018-09-29T19:30:10.422Z,101836.38
2018-09-29T19:35:05.654Z,101845.94
2018-09-29T19:40:00.676Z,101838.33
2018-09-29T19:44:55.227Z,101831.98
2018-09-29T19:49:49.846Z,101831.78
2018-09-29T19:54:44.737Z,101829.73
2018-09-29T19:59:39.211Z,101832.91
2018-09-29T20:04:33.654Z,101829.39
2018-09-29T20:09:28.282Z,101820.16
2018-09-29T20:14:22.735Z,101822.95
2018-09-29T20:19:17.251Z,101816.05
2018-09-29T20:24:12.691Z,101816.22
2018-09-29T20:29:07.563Z,101806.73
2018-09-29T20:34:02.046Z,101810.52
2018-09-29T20:38:57.051Z,101802.11
2018-09-29T20:43:51.497Z,101802.41
2018-09-29T20:48:45.932Z,101796.50
2018-09-29T20:53:40.388Z,101798.58
2018-09-29T20:58:34.868Z,101801.38
2018-09-29T21:03:29.312Z,101795.89
2018-09-29T21:08:23.789Z,101793.00
2018-09-29T21:13:20.132Z,101790.06
2018-09-29T21:18:14.856Z,101791.17
2018-09-29T21:23:09.717Z,101780.78
2018-09-29T21:28:04.223Z,101772.56
2018-09-29T21:32:58.928Z,101774.38
2018-09-29T21:37:53.398Z,101774.13
2018-09-29T21:42:49.275Z,101758.53
2018-09-29T21:47:43.809Z,101760.16
2018-09-29T21:52:38.275Z,101752.30
2018-09-29T21:57:32.912Z,101748.04
2018-09-29T22:02:27.711Z,101746.33
2018-09-29T22:07:23.074Z,101744.09
2018-09-29T22:12:18.201Z,101752.48
2018-09-29T22:17:12.850Z,101748.72
2018-09-29T22:22:07.283Z,101739.63
2018-09-29T22:27:01.923Z,101737.09
2018-09-29T22:31:56.446Z,101735.91
2018-09-29T22:36:52.309Z,101729.81
2018-09-29T22:41:47.708Z,101718.34
2018-09-29T22:46:42.535Z,101713.19
2018-09-29T22:51:37.779Z,101704.16
2018-09-29T22:56:33.114Z,101701.78
2018-09-29T23:01:29.131Z,101708.72
2018-09-29T23:06:23.597Z,101700.91
2018-09-29T23:11:18.034Z,101689.52
2018-09-29T23:16:12.454Z,101685.72
2018-09-29T23:21:07.343Z,101685.43
2018-09-29T23:26:01.814Z,101693.57
2018-09-29T23:30:56.276Z,101698.69
2018-09-29T23:35:50.720Z,101690.27
2018-09-29T23:40:45.306Z,101688.39
2018-09-29T23:45:39.778Z,101693.85
2018-09-29T23:50:34.200Z,101684.42
2018-09-29T23:55:28.648Z,101675.87
